Time;durP1;ratioP1;P1;durP2;ratioP2;P2;SDS_P1;SDS_P2;PMS_P1;PMS_P2;Temp;Humidity;BMP_temperature;BMP_pressure;BME280_temperature;BME280_humidity;BME280_pressure;Samples;Min_cycle;Max_cycle;Signal;HPM_P1;HPM_P2
2022/06/04 00:00:52;;;;;;;3.80;3.40;;;;;;;15.43;59.45;96833.67;107395;1273;29266;-73
2022/06/04 00:03:23;;;;;;;5.10;3.80;;;;;;;15.45;59.57;96835.92;107398;1273;33287;-73
2022/06/04 00:05:57;;;;;;;5.60;3.90;;;;;;;15.42;59.71;96830.50;107368;1273;46245;-73
2022/06/04 00:08:30;;;;;;;3.90;3.50;;;;;;;15.42;59.78;96827.30;107329;1273;41668;-73
2022/06/04 00:16:38;;;;;;;7.30;6.60;;;;;;;15.41;60.60;96824.65;107404;1273;33286;-74
2022/06/04 00:19:09;;;;;;;10.70;9.60;;;;;;;15.28;61.38;96818.30;107367;1273;37824;-73
2022/06/04 00:21:40;;;;;;;4.60;4.10;;;;;;;15.18;62.11;96819.63;107402;1273;30684;-73
2022/06/04 00:24:11;;;;;;;5.20;3.80;;;;;;;15.08;62.80;96824.52;107302;1274;46301;-74
2022/06/04 00:26:43;;;;;;;4.20;3.50;;;;;;;15.08;63.04;96824.31;107383;1273;29948;-73
2022/06/04 00:29:16;;;;;;;3.70;3.40;;;;;;;15.14;63.20;96824.16;107389;1273;35335;-73
2022/06/04 00:31:47;;;;;;;4.60;3.70;;;;;;;15.21;62.57;96821.77;107348;1272;46199;-73
2022/06/04 00:34:18;;;;;;;5.10;3.40;;;;;;;15.28;62.74;96824.02;107385;1273;34493;-73
2022/06/04 00:36:52;;;;;;;4.20;3.80;;;;;;;15.32;62.60;96820.27;107334;1273;44175;-73
2022/06/04 00:39:23;;;;;;;4.70;4.10;;;;;;;15.29;62.84;96820.19;107285;1273;44515;-73
2022/06/04 00:42:02;;;;;;;4.10;3.40;;;;;;;15.04;63.06;96823.75;107305;1273;44795;-72
2022/06/04 00:45:12;;;;;;;4.20;3.80;;;;;;;14.88;63.85;96821.48;107359;1273;32385;-72
2022/06/04 00:47:43;;;;;;;4.80;3.60;;;;;;;14.80;64.51;96818.62;107280;1273;45100;-72
2022/06/04 00:50:16;;;;;;;6.20;4.30;;;;;;;14.77;64.79;96816.86;107359;1273;34706;-73
2022/06/04 00:52:49;;;;;;;4.00;3.60;;;;;;;14.67;65.62;96815.90;107335;1273;41305;-72
2022/06/04 00:55:22;;;;;;;5.50;3.50;;;;;;;14.69;65.72;96812.01;107379;1274;50139;-72
2022/06/04 00:58:06;;;;;;;4.40;3.30;;;;;;;14.84;65.38;96810.73;107359;1273;33281;-72
2022/06/04 01:00:41;;;;;;;4.50;3.70;;;;;;;15.00;65.26;96807.08;107384;1273;44302;-72
2022/06/04 01:03:30;;;;;;;3.90;3.30;;;;;;;15.09;65.07;96804.14;107389;1273;33891;-73
2022/06/04 01:06:14;;;;;;;4.40;4.00;;;;;;;15.18;65.04;96804.63;107353;1273;37782;-73
2022/06/04 01:09:10;;;;;;;4.80;4.20;;;;;;;15.02;65.62;96799.77;107357;1273;32079;-72
2022/06/04 01:12:13;;;;;;;17.40;14.50;;;;;;;14.88;66.06;96801.34;107309;1273;49710;-72
2022/06/04 01:14:58;;;;;;;7.20;4.50;;;;;;;14.92;66.17;96799.66;107315;1273;40398;-73
2022/06/04 01:17:41;;;;;;;4.10;3.20;;;;;;;15.00;66.50;96796.11;107315;1273;42473;-72
2022/06/04 01:20:23;;;;;;;4.90;3.50;;;;;;;15.11;66.49;96791.27;107322;1273;45844;-73
2022/06/04 01:23:25;;;;;;;3.60;3.30;;;;;;;15.18;66.06;96792.71;107384;1271;33619;-72
2022/06/04 01:26:35;;;;;;;3.50;3.20;;;;;;;15.27;65.89;96781.77;107310;1273;43687;-73
2022/06/04 01:29:10;;;;;;;4.40;4.00;;;;;;;15.34;65.95;96778.45;107475;1273;28936;-72
2022/06/04 01:31:48;;;;;;;6.70;4.80;;;;;;;15.31;66.25;96775.11;107403;1271;36173;-72
2022/06/04 01:34:25;;;;;;;5.50;4.10;;;;;;;15.14;66.36;96774.92;107321;1273;47033;-72
2022/06/04 01:37:03;;;;;;;7.00;6.10;;;;;;;14.97;66.76;96772.29;107324;1273;41616;-72
2022/06/04 01:42:33;;;;;;;4.70;3.90;;;;;;;15.10;66.44;96773.84;107360;1272;41879;-72
2022/06/04 01:45:09;;;;;;;4.70;4.10;;;;;;;15.24;66.21;96773.77;107399;1273;38943;-72
2022/06/04 01:47:43;;;;;;;5.60;4.20;;;;;;;15.35;65.92;96772.13;107320;1273;30272;-72
2022/06/04 01:50:20;;;;;;;7.10;6.40;;;;;;;15.45;65.92;96769.25;107305;1273;44776;-73
2022/06/04 01:52:52;;;;;;;5.00;4.10;;;;;;;15.53;65.93;96767.59;107355;1273;41347;-72
2022/06/04 01:55:27;;;;;;;4.70;3.70;;;;;;;15.61;65.90;96761.34;107306;1273;50103;-72
2022/06/04 01:58:02;;;;;;;4.50;3.70;;;;;;;15.68;65.79;96763.10;107349;1273;42326;-72
2022/06/04 02:00:41;;;;;;;4.50;3.70;;;;;;;15.73;65.88;96761.08;107397;1273;35761;-72
2022/06/04 02:03:17;;;;;;;3.90;3.60;;;;;;;15.78;65.90;96762.21;107380;1273;29896;-72
2022/06/04 02:05:51;;;;;;;6.30;4.30;;;;;;;15.83;65.75;96760.71;107343;1273;40961;-72
2022/06/04 02:08:28;;;;;;;3.90;3.20;;;;;;;15.88;65.80;96758.56;107338;1273;38062;-72
2022/06/04 02:11:04;;;;;;;6.00;4.00;;;;;;;15.92;64.74;96756.80;107320;1273;46751;-72
2022/06/04 02:13:37;;;;;;;3.90;3.50;;;;;;;15.97;64.28;96754.23;107429;1273;30498;-72
2022/06/04 02:16:13;;;;;;;4.60;3.90;;;;;;;15.98;64.39;96750.75;107315;1273;40903;-73
2022/06/04 02:18:44;;;;;;;4.50;4.10;;;;;;;15.96;64.25;96744.55;107343;1273;29034;-72
2022/06/04 02:21:15;;;;;;;4.70;4.30;;;;;;;15.97;64.64;96739.08;107326;1272;41096;-72
2022/06/04 02:23:48;;;;;;;4.60;4.20;;;;;;;15.98;64.70;96736.37;107328;1273;46654;-72
2022/06/04 02:26:20;;;;;;;4.10;3.70;;;;;;;15.97;64.83;96734.42;107328;1273;41849;-72
2022/06/04 02:28:53;;;;;;;4.40;3.60;;;;;;;15.95;64.54;96734.48;107334;1273;29237;-72
2022/06/04 02:31:34;;;;;;;4.00;3.60;;;;;;;15.97;64.07;96734.80;107305;1273;56189;-72
2022/06/04 02:34:12;;;;;;;5.40;4.20;;;;;;;15.99;63.69;96730.27;107432;1273;36184;-72
2022/06/04 02:36:50;;;;;;;5.10;4.60;;;;;;;16.02;63.84;96729.61;107344;1273;40907;-72
2022/06/04 02:39:29;;;;;;;4.70;4.30;;;;;;;16.02;64.22;96732.75;107321;1273;34212;-72
2022/06/04 02:42:11;;;;;;;6.70;4.50;;;;;;;16.02;64.59;96732.02;107306;1273;38690;-72
2022/06/04 02:44:49;;;;;;;5.40;4.30;;;;;;;15.93;64.31;96731.20;107262;1273;40434;-72
2022/06/04 02:47:24;;;;;;;4.80;4.00;;;;;;;15.88;64.28;96730.31;107316;1273;53534;-73
2022/06/04 02:50:02;;;;;;;4.50;4.00;;;;;;;15.89;64.36;96729.60;107302;1273;51447;-72
2022/06/04 02:52:35;;;;;;;6.30;4.30;;;;;;;15.93;64.78;96724.85;107389;1273;45427;-72
2022/06/04 02:55:10;;;;;;;4.60;3.70;;;;;;;15.95;65.10;96722.03;107380;1273;36956;-72
2022/06/04 02:57:45;;;;;;;5.00;3.70;;;;;;;15.97;64.82;96723.06;107387;1273;38406;-72
2022/06/04 03:00:21;;;;;;;5.20;4.00;;;;;;;16.02;64.74;96720.02;107298;1273;41422;-72
2022/06/04 03:02:53;;;;;;;4.80;4.10;;;;;;;16.07;64.75;96713.89;107361;1273;45802;-72
2022/06/04 03:05:27;;;;;;;4.60;4.20;;;;;;;16.12;64.98;96711.98;107302;1273;36667;-72
2022/06/04 03:08:03;;;;;;;4.90;4.10;;;;;;;16.15;65.28;96711.88;107373;1273;34325;-72
2022/06/04 03:10:36;;;;;;;5.50;4.20;;;;;;;16.13;66.33;96708.26;107315;1273;47193;-72
2022/06/04 03:13:07;;;;;;;9.60;7.50;;;;;;;15.95;67.25;96708.61;107422;1273;30900;-72
2022/06/04 03:15:38;;;;;;;11.00;7.80;;;;;;;15.84;67.83;96708.95;107337;1273;44622;-73
2022/06/04 03:18:10;;;;;;;5.80;4.80;;;;;;;15.83;68.04;96704.05;107358;1273;34540;-73
2022/06/04 03:20:41;;;;;;;7.10;5.30;;;;;;;15.89;67.48;96705.42;107269;1273;43030;-73
2022/06/04 03:23:12;;;;;;;6.00;4.90;;;;;;;15.98;67.64;96702.62;107354;1273;40151;-72
2022/06/04 03:25:44;;;;;;;6.90;5.20;;;;;;;16.05;67.21;96703.45;107313;1273;40174;-74
2022/06/04 03:28:15;;;;;;;5.10;4.50;;;;;;;16.12;67.51;96701.27;107337;1273;39734;-73
2022/06/04 03:30:46;;;;;;;4.70;4.00;;;;;;;16.19;67.65;96700.54;107350;1273;44180;-72
2022/06/04 03:33:19;;;;;;;4.10;3.40;;;;;;;16.22;67.22;96705.87;107477;1272;30576;-73
2022/06/04 03:35:50;;;;;;;4.60;3.40;;;;;;;16.24;67.00;96707.73;107408;1273;39259;-72
2022/06/04 03:38:21;;;;;;;5.60;3.70;;;;;;;16.30;66.99;96704.32;107434;1273;30757;-72
2022/06/04 03:40:53;;;;;;;4.50;3.90;;;;;;;16.35;66.95;96702.96;107393;1273;39794;-72
2022/06/04 03:43:24;;;;;;;4.10;3.70;;;;;;;16.38;66.90;96702.08;107421;1273;55512;-72
2022/06/04 03:45:55;;;;;;;5.50;4.20;;;;;;;16.39;66.82;96704.77;107409;1273;40080;-72
2022/06/04 03:48:28;;;;;;;4.30;3.90;;;;;;;16.41;66.96;96705.13;107330;1273;40764;-72
2022/06/04 03:50:59;;;;;;;5.00;4.20;;;;;;;16.42;66.86;96704.66;107312;1273;41363;-72
2022/06/04 03:53:30;;;;;;;4.40;3.90;;;;;;;16.41;67.06;96703.46;107373;1273;28817;-72
2022/06/04 03:56:01;;;;;;;4.30;3.90;;;;;;;16.34;67.19;96698.80;107304;1273;54097;-72
2022/06/04 03:58:32;;;;;;;4.10;3.70;;;;;;;16.21;66.70;96692.39;107335;1273;27825;-72
2022/06/04 04:01:14;;;;;;;4.40;3.70;;;;;;;16.17;66.48;96692.40;107286;1273;41914;-72
2022/06/04 04:03:45;;;;;;;4.50;3.90;;;;;;;16.20;66.58;96690.66;107410;1273;29030;-72
2022/06/04 04:06:20;;;;;;;5.20;4.70;;;;;;;16.25;66.99;96686.01;107335;1273;38918;-72
2022/06/04 04:08:51;;;;;;;4.60;4.00;;;;;;;16.21;66.33;96683.61;107347;1273;27355;-72
2022/06/04 04:11:25;;;;;;;4.60;4.10;;;;;;;16.21;67.23;96684.18;107316;1273;43197;-72
2022/06/04 04:13:56;;;;;;;4.30;3.80;;;;;;;16.22;68.43;96680.06;107354;1273;32171;-72
2022/06/04 04:16:28;;;;;;;5.20;3.40;;;;;;;16.24;68.34;96681.00;107230;1274;43667;-72
2022/06/04 04:18:59;;;;;;;6.90;3.90;;;;;;;16.30;67.62;96684.14;107275;1273;34441;-72
2022/06/04 04:21:39;;;;;;;4.20;3.30;;;;;;;16.36;66.37;96689.40;107286;1273;39501;-72
2022/06/04 04:24:10;;;;;;;4.90;3.70;;;;;;;16.38;65.14;96687.45;107342;1273;31095;-72
2022/06/04 04:26:42;;;;;;;4.80;3.90;;;;;;;16.39;64.55;96688.55;107332;1273;37668;-73
2022/06/04 04:29:13;;;;;;;5.60;4.20;;;;;;;16.40;64.18;96687.50;107031;1273;404807;-72
2022/06/04 04:31:44;;;;;;;6.60;4.00;;;;;;;16.42;64.03;96686.52;107327;1273;42159;-72
2022/06/04 04:34:15;;;;;;;4.90;3.90;;;;;;;16.40;63.98;96687.50;107366;1271;33093;-72
2022/06/04 04:36:46;;;;;;;7.30;4.70;;;;;;;16.39;64.98;96689.99;107337;1273;42521;-72
2022/06/04 04:39:18;;;;;;;4.70;4.20;;;;;;;16.33;66.19;96692.20;107339;1273;37290;-72
2022/06/04 04:41:49;;;;;;;4.70;3.90;;;;;;;16.29;66.84;96696.27;107326;1273;41989;-72
2022/06/04 04:44:20;;;;;;;6.30;3.60;;;;;;;16.32;66.65;96699.66;107285;1273;41699;-72
2022/06/04 04:46:53;;;;;;;3.80;3.50;;;;;;;16.39;66.14;96701.98;107328;1273;34533;-72
2022/06/04 04:49:25;;;;;;;5.60;3.40;;;;;;;16.45;65.55;96699.16;107251;1273;48636;-72
2022/06/04 04:51:56;;;;;;;5.40;4.10;;;;;;;16.55;65.39;96703.64;107411;1273;50329;-71
2022/06/04 04:54:28;;;;;;;5.40;3.60;;;;;;;16.65;65.68;96710.05;107455;1273;38027;-72
2022/06/04 04:56:59;;;;;;;4.70;4.00;;;;;;;16.75;65.92;96710.73;107459;1273;38468;-72
2022/06/04 04:59:33;;;;;;;5.90;4.10;;;;;;;16.84;65.63;96716.75;107376;1273;43308;-72
2022/06/04 05:02:06;;;;;;;4.70;4.20;;;;;;;16.89;65.27;96721.94;107321;1273;36751;-72
2022/06/04 05:04:38;;;;;;;4.50;4.10;;;;;;;16.99;65.30;96726.79;107452;1273;32215;-72
2022/06/04 05:07:12;;;;;;;4.60;3.60;;;;;;;17.08;64.95;96729.34;107301;1273;38354;-73
2022/06/04 05:09:43;;;;;;;4.40;4.00;;;;;;;17.27;64.15;96733.23;107324;1273;32972;-72
2022/06/04 05:12:15;;;;;;;5.10;4.10;;;;;;;17.43;63.54;96737.83;107251;1273;35708;-72
2022/06/04 05:14:46;;;;;;;5.00;4.00;;;;;;;17.49;62.99;96736.53;107282;1273;37418;-72
2022/06/04 05:17:17;;;;;;;5.10;4.10;;;;;;;17.50;62.46;96742.48;107342;1273;35457;-72
2022/06/04 05:19:49;;;;;;;4.50;3.60;;;;;;;17.44;62.74;96744.03;107288;1273;37134;-72
2022/06/04 05:22:20;;;;;;;4.70;3.90;;;;;;;17.51;63.21;96743.96;107282;1274;40593;-72
2022/06/04 05:24:51;;;;;;;4.50;4.10;;;;;;;17.63;63.36;96746.30;107403;1273;43235;-72
2022/06/04 05:27:22;;;;;;;4.50;3.80;;;;;;;17.68;63.11;96745.88;107443;1273;35882;-72
2022/06/04 05:29:54;;;;;;;4.60;4.20;;;;;;;17.68;63.51;96745.53;107387;1273;42095;-72
2022/06/04 05:32:27;;;;;;;4.40;4.00;;;;;;;17.71;63.68;96753.16;107427;1271;30867;-72
2022/06/04 05:34:58;;;;;;;3.80;3.40;;;;;;;17.73;64.21;96754.08;107401;1272;40285;-72
2022/06/04 05:37:29;;;;;;;4.60;4.10;;;;;;;17.74;63.97;96760.68;107412;1273;37139;-72
2022/06/04 05:40:01;;;;;;;7.90;4.40;;;;;;;17.65;63.30;96768.65;107392;1273;38264;-72
2022/06/04 05:42:32;;;;;;;5.20;4.20;;;;;;;17.48;63.30;96773.39;107420;1273;31598;-72
2022/06/04 05:45:04;;;;;;;4.80;4.30;;;;;;;17.36;63.45;96778.41;107305;1273;35708;-72
2022/06/04 05:47:35;;;;;;;4.90;4.20;;;;;;;17.26;63.67;96783.47;107403;1273;37545;-72
2022/06/04 05:50:08;;;;;;;5.70;3.90;;;;;;;17.21;63.82;96788.72;107354;1273;54537;-72
2022/06/04 05:52:39;;;;;;;5.40;4.50;;;;;;;17.20;64.06;96794.20;107375;1273;39500;-73
2022/06/04 05:55:11;;;;;;;8.20;3.70;;;;;;;17.23;64.38;96791.33;107290;1273;44259;-73
2022/06/04 05:57:43;;;;;;;6.00;3.60;;;;;;;17.31;64.85;96792.64;107449;1273;32651;-73
2022/06/04 06:00:17;;;;;;;6.50;4.40;;;;;;;17.43;65.13;96793.27;107448;1273;35814;-72
2022/06/04 06:02:49;;;;;;;4.70;4.30;;;;;;;17.54;64.97;96794.15;107497;1273;32473;-71
2022/06/04 06:05:21;;;;;;;8.30;4.20;;;;;;;17.61;64.89;96791.64;107398;1273;39683;-72
2022/06/04 06:07:53;;;;;;;6.90;4.70;;;;;;;17.62;64.99;96788.92;107440;1273;33831;-71
2022/06/04 06:10:24;;;;;;;6.00;4.60;;;;;;;17.59;65.05;96792.80;107410;1272;30040;-71
2022/06/04 06:12:56;;;;;;;6.10;4.30;;;;;;;17.58;65.25;96788.18;107329;1273;38964;-71
2022/06/04 06:15:27;;;;;;;4.90;4.00;;;;;;;17.58;65.53;96790.33;107309;1273;43356;-71
2022/06/04 06:17:58;;;;;;;5.70;3.40;;;;;;;17.56;65.39;96789.20;107360;1273;37021;-71
2022/06/04 06:20:29;;;;;;;5.70;4.20;;;;;;;17.56;65.56;96784.46;107317;1273;38065;-72
2022/06/04 06:23:00;;;;;;;4.40;4.00;;;;;;;17.63;65.87;96786.39;107356;1273;29588;-71
2022/06/04 06:25:31;;;;;;;6.40;4.90;;;;;;;17.68;65.77;96784.90;107351;1273;32632;-71
2022/06/04 06:28:03;;;;;;;5.90;4.60;;;;;;;17.65;65.68;96785.21;107355;1273;31174;-72
2022/06/04 06:30:36;;;;;;;7.20;4.80;;;;;;;17.62;65.99;96788.16;107358;1273;42752;-71
2022/06/04 06:33:07;;;;;;;5.70;4.80;;;;;;;17.54;66.52;96786.27;107425;1271;32875;-71
2022/06/04 06:35:38;;;;;;;4.60;4.20;;;;;;;17.41;67.05;96782.19;107382;1273;39740;-71
2022/06/04 06:38:10;;;;;;;5.00;4.50;;;;;;;17.34;67.13;96783.66;107323;1273;33286;-72
2022/06/04 06:40:41;;;;;;;4.90;4.50;;;;;;;17.20;67.36;96778.33;107318;1273;42809;-71
2022/06/04 06:43:12;;;;;;;4.60;4.20;;;;;;;17.15;67.50;96777.48;107315;1273;35319;-72
2022/06/04 06:45:44;;;;;;;5.60;4.50;;;;;;;17.16;67.88;96777.67;107322;1273;36935;-72
2022/06/04 06:48:15;;;;;;;5.30;4.60;;;;;;;17.14;68.22;96782.46;107329;1273;38103;-72
2022/06/04 06:50:46;;;;;;;4.90;4.40;;;;;;;17.10;68.26;96778.12;107326;1273;26654;-71
2022/06/04 06:53:18;;;;;;;7.20;5.00;;;;;;;17.10;68.52;96779.20;107305;1272;44042;-71
2022/06/04 06:55:49;;;;;;;5.30;4.60;;;;;;;17.15;68.63;96775.27;107366;1273;31426;-71
2022/06/04 06:58:23;;;;;;;6.00;5.40;;;;;;;17.12;69.00;96771.06;107319;1273;39457;-72
2022/06/04 07:00:55;;;;;;;5.30;4.80;;;;;;;17.03;69.22;96771.06;107300;1273;47098;-71
2022/06/04 07:03:26;;;;;;;4.50;4.10;;;;;;;17.05;69.55;96772.36;107326;1273;39228;-71
2022/06/04 07:05:57;;;;;;;5.10;4.50;;;;;;;17.09;69.81;96772.48;107283;1273;41725;-71
2022/06/04 07:08:29;;;;;;;8.30;4.70;;;;;;;17.14;70.00;96775.59;107318;1273;37932;-71
2022/06/04 07:11:00;;;;;;;6.50;4.80;;;;;;;17.22;69.96;96775.73;107312;1273;39310;-71
2022/06/04 07:13:31;;;;;;;5.20;4.70;;;;;;;17.32;69.81;96772.69;107283;1273;42257;-71
2022/06/04 07:16:04;;;;;;;5.00;4.60;;;;;;;17.35;69.68;96772.53;107350;1273;30338;-71
2022/06/04 07:18:35;;;;;;;8.60;7.40;;;;;;;17.39;70.02;96774.53;107318;1273;30086;-72
2022/06/04 07:21:08;;;;;;;5.20;4.70;;;;;;;17.40;70.10;96771.22;107415;1273;31307;-71
2022/06/04 07:23:39;;;;;;;5.50;4.40;;;;;;;17.41;70.15;96768.89;107325;1273;39598;-72
2022/06/04 07:26:12;;;;;;;16.80;13.70;;;;;;;17.45;70.39;96770.97;107381;1273;27290;-72
2022/06/04 07:28:43;;;;;;;6.10;5.40;;;;;;;17.47;70.50;96771.85;107308;1273;38814;-72
2022/06/04 07:31:16;;;;;;;7.90;7.10;;;;;;;17.55;70.51;96773.38;107347;1273;37766;-71
2022/06/04 07:33:48;;;;;;;7.30;6.50;;;;;;;17.63;70.49;96777.39;107325;1273;41298;-72
2022/06/04 07:36:22;;;;;;;4.70;4.00;;;;;;;17.70;70.42;96780.45;107299;1273;52411;-71
2022/06/04 07:38:53;;;;;;;6.20;5.10;;;;;;;17.77;70.23;96782.73;107304;1273;47339;-73
2022/06/04 07:41:27;;;;;;;5.10;4.20;;;;;;;17.89;70.20;96785.54;107283;1272;32198;-73
2022/06/04 07:44:01;;;;;;;5.20;4.10;;;;;;;17.98;70.25;96785.39;107320;1273;41397;-72
2022/06/04 07:46:33;;;;;;;4.70;4.10;;;;;;;18.07;70.03;96786.77;107445;1273;42996;-72
2022/06/04 07:49:06;;;;;;;4.40;4.00;;;;;;;18.05;69.94;96785.00;107464;1273;46237;-72
2022/06/04 07:51:39;;;;;;;4.40;3.90;;;;;;;18.01;70.58;96773.96;107474;1273;37842;-72
2022/06/04 07:54:12;;;;;;;4.70;3.80;;;;;;;17.96;70.88;96774.27;107430;1273;42804;-72
2022/06/04 07:56:44;;;;;;;5.80;3.80;;;;;;;17.90;70.99;96781.37;107463;1273;31302;-72
2022/06/04 07:59:16;;;;;;;4.70;4.20;;;;;;;17.94;71.25;96784.21;107386;1273;40729;-72
2022/06/04 08:01:48;;;;;;;12.60;8.40;;;;;;;18.02;71.33;96786.07;107412;1273;38731;-72
2022/06/04 08:04:20;;;;;;;8.50;5.30;;;;;;;18.15;71.71;96785.30;107380;1273;45334;-73
2022/06/04 08:06:51;;;;;;;6.40;4.20;;;;;;;18.29;71.86;96785.48;107180;1273;234808;-72
2022/06/04 08:09:22;;;;;;;7.20;5.80;;;;;;;18.41;71.23;96783.79;107366;1274;27653;-72
2022/06/04 08:11:53;;;;;;;6.70;4.60;;;;;;;18.50;70.88;96781.87;107374;1273;51273;-72
2022/06/04 08:14:26;;;;;;;4.30;3.80;;;;;;;18.41;70.52;96779.68;107373;1273;42446;-72
2022/06/04 08:16:59;;;;;;;4.50;4.10;;;;;;;18.28;70.62;96781.06;107354;1273;43056;-72
2022/06/04 08:19:33;;;;;;;4.10;3.70;;;;;;;18.24;70.51;96783.43;107336;1273;42045;-72
2022/06/04 08:22:08;;;;;;;5.50;4.60;;;;;;;18.28;70.79;96779.67;107350;1273;44069;-72
2022/06/04 08:24:40;;;;;;;5.20;4.60;;;;;;;18.31;71.07;96781.44;107336;1273;46420;-73
2022/06/04 08:27:11;;;;;;;5.20;4.50;;;;;;;18.33;71.02;96776.08;107385;1273;44734;-73
2022/06/04 08:29:44;;;;;;;7.00;4.50;;;;;;;18.36;71.22;96772.48;107369;1273;37336;-73
2022/06/04 08:32:15;;;;;;;6.90;3.90;;;;;;;18.48;71.61;96766.77;107352;1273;44924;-72
2022/06/04 08:34:47;;;;;;;5.00;4.30;;;;;;;18.59;71.17;96767.70;107322;1273;33751;-72
2022/06/04 08:37:18;;;;;;;6.30;4.50;;;;;;;18.68;71.16;96769.46;107326;1273;57067;-72
2022/06/04 08:39:49;;;;;;;4.10;3.80;;;;;;;18.77;70.89;96768.25;107334;1273;32548;-72
2022/06/04 08:42:38;;;;;;;5.10;4.60;;;;;;;18.82;70.61;96769.89;107302;1273;42740;-72
2022/06/04 08:45:13;;;;;;;6.00;5.30;;;;;;;18.75;71.13;96769.66;107378;1273;31376;-73
2022/06/04 08:47:51;;;;;;;7.30;6.20;;;;;;;18.71;71.86;96767.33;107328;1273;44270;-73
2022/06/04 08:50:26;;;;;;;7.40;6.60;;;;;;;18.73;72.39;96765.43;107366;1273;34653;-72
2022/06/04 08:53:02;;;;;;;8.80;6.70;;;;;;;18.77;72.60;96765.03;107347;1273;43704;-72
2022/06/04 08:58:41;;;;;;;10.40;8.20;;;;;;;18.79;72.56;96768.70;107279;1276;45944;-72
2022/06/04 09:01:20;;;;;;;13.00;9.50;;;;;;;18.80;72.56;96768.06;107359;1273;40664;-73
2022/06/04 09:04:02;;;;;;;17.00;15.00;;;;;;;18.81;72.59;96771.91;107367;1273;34508;-72
2022/06/04 09:06:46;;;;;;;12.80;10.00;;;;;;;18.80;72.46;96775.42;107403;1273;39074;-72
2022/06/04 09:09:21;;;;;;;10.50;8.40;;;;;;;18.84;72.56;96782.64;107370;1273;40538;-72
2022/06/04 09:12:00;;;;;;;11.10;8.90;;;;;;;18.88;72.49;96780.02;107363;1273;38283;-72
2022/06/04 09:14:37;;;;;;;10.20;8.40;;;;;;;18.88;72.26;96783.27;107369;1273;32608;-73
2022/06/04 09:17:14;;;;;;;9.20;7.30;;;;;;;18.73;71.56;96785.30;107491;1273;35384;-72
2022/06/04 09:19:53;;;;;;;8.40;7.10;;;;;;;18.44;71.76;96790.98;107280;1273;44443;-73
2022/06/04 09:22:31;;;;;;;8.10;6.60;;;;;;;18.16;71.62;96794.23;107373;1273;54958;-72
2022/06/04 09:25:02;;;;;;;9.80;7.20;;;;;;;18.01;72.01;96792.23;107331;1273;40519;-72
2022/06/04 09:27:41;;;;;;;8.00;7.20;;;;;;;17.94;72.49;96791.51;107352;1273;30334;-72
2022/06/04 09:30:25;;;;;;;8.60;7.70;;;;;;;17.90;72.91;96801.31;107295;1273;69736;-73
2022/06/04 09:33:14;;;;;;;8.10;6.90;;;;;;;17.94;73.28;96815.59;107301;1273;82975;-72
2022/06/04 09:35:47;;;;;;;7.30;6.20;;;;;;;17.85;73.05;96818.17;107388;1273;28854;-72
2022/06/04 09:38:26;;;;;;;6.40;5.70;;;;;;;17.73;73.09;96809.02;107364;1273;55297;-73
2022/06/04 09:41:02;;;;;;;7.30;6.10;;;;;;;17.69;73.17;96808.79;107326;1271;43767;-72
2022/06/04 09:43:36;;;;;;;8.40;7.50;;;;;;;17.72;73.60;96817.48;107398;1273;41069;-73
2022/06/04 09:46:09;;;;;;;7.30;6.50;;;;;;;17.76;74.08;96821.73;107381;1273;81861;-72
2022/06/04 09:48:51;;;;;;;8.90;7.10;;;;;;;17.74;74.19;96816.73;107366;1273;42024;-73
2022/06/04 09:51:25;;;;;;;9.50;8.20;;;;;;;17.69;74.50;96827.55;107439;1273;47047;-72
2022/06/04 09:54:03;;;;;;;9.00;7.10;;;;;;;17.71;75.03;96823.66;107347;1273;47744;-73
2022/06/04 09:56:38;;;;;;;9.70;7.40;;;;;;;17.74;74.85;96826.80;107418;1273;32166;-72
2022/06/04 09:59:21;;;;;;;10.80;8.10;;;;;;;17.82;74.90;96827.86;107356;1273;44240;-73
2022/06/04 10:01:58;;;;;;;11.50;8.20;;;;;;;17.83;74.64;96827.00;107347;1273;53908;-72
2022/06/04 10:04:43;;;;;;;8.20;7.30;;;;;;;17.85;74.73;96833.42;107358;1273;41574;-72
2022/06/04 10:07:18;;;;;;;9.30;6.80;;;;;;;17.90;74.81;96834.09;107354;1273;71421;-72
2022/06/04 10:09:57;;;;;;;8.50;7.20;;;;;;;17.93;75.44;96832.57;107363;1273;35056;-72
2022/06/04 10:15:30;;;;;;;11.00;9.90;;;;;;;18.03;76.16;96828.97;107350;1273;41672;-73
2022/06/04 10:18:16;;;;;;;10.10;8.80;;;;;;;18.31;76.04;96829.02;107357;1273;54682;-72
2022/06/04 10:21:00;;;;;;;9.20;8.10;;;;;;;18.63;75.80;96830.12;107440;1273;30690;-73
2022/06/04 10:23:42;;;;;;;8.10;7.20;;;;;;;19.02;76.03;96829.90;107385;1273;39445;-72
2022/06/04 10:26:37;;;;;;;10.40;7.60;;;;;;;19.39;75.26;96835.80;107391;1272;36789;-72
2022/06/04 10:29:37;;;;;;;10.70;8.50;;;;;;;19.52;74.25;96839.64;107429;1273;44462;-72
2022/06/04 10:32:19;;;;;;;10.00;8.80;;;;;;;19.67;73.80;96833.73;107385;1273;33613;-73
2022/06/04 10:35:01;;;;;;;9.70;8.20;;;;;;;19.74;73.33;96835.23;107367;1273;36145;-72
2022/06/04 10:37:51;;;;;;;9.80;8.90;;;;;;;19.70;72.87;96837.23;107358;1273;32120;-73
2022/06/04 10:40:42;;;;;;;11.00;9.90;;;;;;;19.49;72.91;96838.02;107332;1273;47125;-72
2022/06/04 10:43:28;;;;;;;11.70;10.50;;;;;;;19.59;73.50;96835.77;107326;1273;59254;-73
2022/06/04 10:46:08;;;;;;;12.00;10.80;;;;;;;19.72;72.74;96835.77;107242;1273;51529;-72
2022/06/04 10:48:55;;;;;;;12.70;10.60;;;;;;;19.71;72.48;96835.42;107367;1273;30874;-73
2022/06/04 10:51:49;;;;;;;14.00;12.70;;;;;;;19.75;72.68;96831.27;107326;1273;39289;-72
2022/06/04 10:54:28;;;;;;;14.10;12.80;;;;;;;19.94;72.44;96831.84;107396;1273;28299;-73
2022/06/04 10:57:09;;;;;;;14.30;13.00;;;;;;;19.86;71.85;96837.40;107361;1273;42002;-72
2022/06/04 10:59:48;;;;;;;15.00;13.50;;;;;;;19.72;71.90;96844.59;107309;1273;51257;-73
2022/06/04 11:02:24;;;;;;;16.70;15.10;;;;;;;19.69;72.37;96847.27;107391;1273;35718;-72
2022/06/04 11:04:59;;;;;;;14.70;13.30;;;;;;;19.92;72.51;96849.30;107291;1273;46100;-72
2022/06/04 11:07:48;;;;;;;16.20;13.90;;;;;;;19.96;71.72;96854.11;107366;1273;32808;-72
2022/06/04 11:10:23;;;;;;;14.80;13.50;;;;;;;19.87;72.14;96856.90;107285;1273;45566;-72
2022/06/04 11:13:04;;;;;;;12.90;11.80;;;;;;;20.03;72.20;96854.15;107389;1273;39597;-72
2022/06/04 11:15:41;;;;;;;13.40;12.10;;;;;;;20.13;70.60;96850.65;107358;1273;74155;-72
2022/06/04 11:18:17;;;;;;;10.30;9.30;;;;;;;20.08;70.64;96852.08;107383;1273;43752;-73
2022/06/04 11:20:56;;;;;;;9.20;8.30;;;;;;;20.27;70.38;96846.55;107322;1273;47594;-72
2022/06/04 11:23:38;;;;;;;9.40;8.50;;;;;;;20.53;70.25;96846.17;107354;1273;37998;-72
2022/06/04 11:26:17;;;;;;;10.30;9.30;;;;;;;20.94;70.21;96842.30;107428;1273;39952;-72
2022/06/04 11:28:49;;;;;;;9.60;8.60;;;;;;;21.27;69.30;96838.67;107376;1273;30384;-72
2022/06/04 11:31:44;;;;;;;11.20;10.10;;;;;;;21.49;68.67;96845.39;107332;1273;45752;-72
2022/06/04 11:34:37;;;;;;;9.60;8.60;;;;;;;21.64;67.83;96846.36;107322;1273;44488;-73
2022/06/04 11:37:24;;;;;;;10.50;9.50;;;;;;;21.66;66.75;96841.00;107429;1273;31620;-72
2022/06/04 11:40:09;;;;;;;11.70;10.50;;;;;;;21.56;66.41;96843.59;107359;1273;42615;-72
2022/06/04 11:42:53;;;;;;;12.20;11.00;;;;;;;21.30;66.00;96842.48;107406;1273;30534;-73
2022/06/04 11:45:51;;;;;;;12.10;11.00;;;;;;;20.96;65.48;96841.03;107340;1273;43035;-73
2022/06/04 11:48:40;;;;;;;9.90;9.00;;;;;;;20.65;67.28;96836.88;107270;1273;45239;-72
2022/06/04 11:51:23;;;;;;;11.20;10.00;;;;;;;20.90;67.26;96837.87;107376;1273;30313;-73
2022/06/04 11:53:58;;;;;;;9.80;8.80;;;;;;;20.93;66.71;96833.88;107373;1273;36005;-72
2022/06/04 11:56:39;;;;;;;8.70;7.70;;;;;;;20.91;67.11;96835.95;107377;1273;38982;-73
2022/06/04 11:59:24;;;;;;;8.30;7.50;;;;;;;21.23;67.15;96830.92;107337;1273;42265;-73
2022/06/04 12:02:00;;;;;;;8.60;7.80;;;;;;;21.60;66.64;96834.90;107333;1273;100477;-74
2022/06/04 12:04:40;;;;;;;8.60;7.80;;;;;;;21.81;66.14;96839.73;107449;1273;40387;-72
2022/06/04 12:07:18;;;;;;;8.80;7.40;;;;;;;21.93;65.77;96841.19;107399;1273;51097;-73
2022/06/04 12:10:00;;;;;;;8.10;7.20;;;;;;;22.10;65.23;96836.55;107428;1273;46388;-73
2022/06/04 12:12:36;;;;;;;8.90;7.90;;;;;;;22.24;64.88;96837.70;107394;1273;48570;-72
2022/06/04 12:15:26;;;;;;;8.60;7.70;;;;;;;22.36;64.46;96842.85;107518;1273;50107;-73
2022/06/04 12:18:00;;;;;;;8.50;7.70;;;;;;;22.35;63.93;96840.35;107435;1273;46367;-73